Time;durP1;ratioP1;P1;durP2;ratioP2;P2;SDS_P1;SDS_P2;PMS_P1;PMS_P2;Temp;Humidity;BMP_temperature;BMP_pressure;BME280_temperature;BME280_humidity;BME280_pressure;Samples;Min_cycle;Max_cycle;Signal;HPM_P1;HPM_P2
2021/09/23 00:01:30;;;;;;;13.43;5.57;;;;;;;8.39;100.00;94540.53;5116697;28;20198;-78
2021/09/23 00:04:02;;;;;;;16.47;5.73;;;;;;;8.40;100.00;94542.16;5116569;28;20281;-78
2021/09/23 00:06:28;;;;;;;10.43;5.33;;;;;;;8.41;100.00;94538.59;5116695;28;20602;-78
2021/09/23 00:08:55;;;;;;;13.80;6.20;;;;;;;8.29;100.00;94527.72;5116244;28;20202;-78
2021/09/23 00:11:22;;;;;;;13.30;6.33;;;;;;;8.27;100.00;94524.47;5116200;28;20609;-78
2021/09/23 00:13:48;;;;;;;14.43;6.00;;;;;;;8.22;100.00;94529.38;5116379;28;20197;-78
2021/09/23 00:16:19;;;;;;;11.67;5.77;;;;;;;8.26;100.00;94520.25;5116281;28;20225;-78
2021/09/23 00:18:46;;;;;;;11.20;6.80;;;;;;;8.20;100.00;94514.91;5116339;28;20197;-77
2021/09/23 00:21:13;;;;;;;13.47;6.57;;;;;;;8.15;100.00;94508.41;5116369;28;20201;-78
2021/09/23 00:23:39;;;;;;;15.43;6.23;;;;;;;8.08;100.00;94491.88;5115961;28;20652;-78
2021/09/23 00:26:05;;;;;;;12.43;5.50;;;;;;;8.18;100.00;94496.03;5116064;28;20286;-78
2021/09/23 00:28:32;;;;;;;15.13;6.07;;;;;;;8.11;100.00;94495.91;5116165;28;20201;-78
2021/09/23 00:30:58;;;;;;;9.77;5.50;;;;;;;8.05;100.00;94487.00;5115980;28;20208;-77
2021/09/23 00:33:26;;;;;;;12.43;6.07;;;;;;;7.97;100.00;94489.59;5116047;28;20197;-78
2021/09/23 00:35:52;;;;;;;11.50;5.73;;;;;;;7.93;100.00;94494.34;5115786;28;20732;-78
2021/09/23 00:38:19;;;;;;;16.80;8.32;;;;;;;8.10;100.00;94495.09;5114430;28;20431;-78
2021/09/23 00:40:45;;;;;;;13.57;6.73;;;;;;;8.11;100.00;94486.34;5115913;28;20254;-78
2021/09/23 00:43:12;;;;;;;13.27;7.13;;;;;;;8.21;100.00;94483.53;5115902;28;20197;-77
2021/09/23 00:45:38;;;;;;;12.63;6.70;;;;;;;8.25;100.00;94487.41;5115852;28;20202;-78
2021/09/23 00:48:05;;;;;;;14.23;6.70;;;;;;;8.21;100.00;94493.13;5114685;28;20247;-77
2021/09/23 00:50:33;;;;;;;13.57;6.40;;;;;;;8.14;100.00;94496.41;5114220;28;20201;-77
2021/09/23 00:53:00;;;;;;;15.77;7.10;;;;;;;8.21;100.00;94493.13;5099274;28;20209;-78
2021/09/23 00:55:26;;;;;;;10.47;6.00;;;;;;;8.17;100.00;94491.84;5094531;28;20600;-77
2021/09/23 00:57:53;;;;;;;13.77;6.17;;;;;;;8.06;100.00;94493.81;5093925;28;20266;-77
2021/09/23 01:00:22;;;;;;;17.20;6.27;;;;;;;8.00;100.00;94496.28;5094534;28;20206;-77
2021/09/23 01:02:48;;;;;;;13.00;6.40;;;;;;;7.92;100.00;94497.09;5095129;28;20209;-77
2021/09/23 01:05:15;;;;;;;13.27;6.97;;;;;;;7.78;100.00;94496.81;5095449;28;20271;-77
2021/09/23 01:07:47;;;;;;;14.83;5.83;;;;;;;7.73;100.00;94488.69;5094949;28;20657;-77
2021/09/23 01:10:14;;;;;;;12.33;5.87;;;;;;;7.61;100.00;94484.81;5095124;28;20206;-77
2021/09/23 01:12:41;;;;;;;14.07;6.13;;;;;;;7.37;100.00;94489.03;5094878;28;20205;-78
2021/09/23 01:15:09;;;;;;;15.90;6.07;;;;;;;7.39;100.00;94489.72;5094958;28;20208;-77
2021/09/23 01:17:36;;;;;;;15.17;6.50;;;;;;;7.47;100.00;94482.88;5094759;28;20230;-77
2021/09/23 01:20:03;;;;;;;12.60;5.90;;;;;;;7.35;100.00;94485.78;5094808;28;20198;-77
2021/09/23 01:22:31;;;;;;;17.27;6.90;;;;;;;7.39;100.00;94479.31;5094930;28;20202;-77
2021/09/23 01:24:58;;;;;;;16.47;6.33;;;;;;;7.23;100.00;94485.31;5094850;28;20206;-78
2021/09/23 01:27:24;;;;;;;14.57;7.13;;;;;;;7.41;100.00;94479.97;5094393;28;20238;-77
2021/09/23 01:29:51;;;;;;;10.87;6.10;;;;;;;7.49;100.00;94488.72;5094608;28;20250;-77
2021/09/23 01:32:19;;;;;;;12.83;5.40;;;;;;;7.34;100.00;94488.56;5094678;28;20201;-77
2021/09/23 01:34:46;;;;;;;13.27;6.07;;;;;;;7.23;100.00;94495.69;5094486;28;20687;-77
2021/09/23 01:37:12;;;;;;;15.20;5.97;;;;;;;7.14;100.00;94501.03;5094455;28;20234;-77
2021/09/23 01:39:40;;;;;;;11.53;5.53;;;;;;;6.91;100.00;94498.25;5094488;28;20598;-77
2021/09/23 01:42:07;;;;;;;10.90;5.47;;;;;;;6.66;100.00;94504.22;5111748;28;20197;-77
2021/09/23 01:44:34;;;;;;;13.63;6.03;;;;;;;6.57;100.00;94502.56;5114700;28;20194;-77
2021/09/23 01:47:01;;;;;;;13.23;5.93;;;;;;;6.43;100.00;94500.59;5114499;28;20198;-77
2021/09/23 01:49:27;;;;;;;12.27;6.33;;;;;;;6.40;100.00;94498.28;5114712;28;20270;-77
2021/09/23 01:51:54;;;;;;;10.80;5.50;;;;;;;6.20;100.00;94485.56;5114609;28;20211;-77
2021/09/23 01:54:20;;;;;;;17.17;6.17;;;;;;;6.17;100.00;94482.47;5114669;28;20201;-77
2021/09/23 01:56:53;;;;;;;13.60;6.03;;;;;;;6.35;100.00;94477.22;5114388;28;20227;-77
2021/09/23 01:59:19;;;;;;;17.90;7.23;;;;;;;6.54;100.00;94471.75;5114182;28;20202;-77
2021/09/23 02:01:46;;;;;;;14.80;6.83;;;;;;;6.30;100.00;94465.50;5114504;28;20213;-77
2021/09/23 02:04:12;;;;;;;13.23;5.67;;;;;;;6.20;100.00;94458.84;5114500;28;20564;-78
2021/09/23 02:06:38;;;;;;;13.07;5.87;;;;;;;6.04;100.00;94464.75;5114412;28;20204;-77
2021/09/23 02:09:05;;;;;;;13.03;6.00;;;;;;;5.99;100.00;94462.63;5114350;28;20197;-77
2021/09/23 02:11:31;;;;;;;13.30;5.77;;;;;;;5.95;100.00;94463.09;5114264;28;20197;-77
2021/09/23 02:13:59;;;;;;;23.97;8.03;;;;;;;6.10;100.00;94453.78;5114105;28;20267;-77
2021/09/23 02:16:25;;;;;;;18.33;7.57;;;;;;;6.14;100.00;94451.69;5113861;28;20225;-77
2021/09/23 02:18:52;;;;;;;21.83;9.37;;;;;;;6.26;100.00;94453.84;5114181;28;20258;-77
2021/09/23 02:21:18;;;;;;;22.10;8.73;;;;;;;6.25;100.00;94446.22;5114036;28;20194;-77
2021/09/23 02:23:45;;;;;;;25.80;9.03;;;;;;;6.18;100.00;94445.19;5113979;28;20201;-77
2021/09/23 02:26:11;;;;;;;22.33;9.57;;;;;;;6.23;100.00;94443.78;5113728;28;20244;-77
2021/09/23 02:28:38;;;;;;;23.70;9.73;;;;;;;6.33;100.00;94442.81;5113768;28;20565;-77
2021/09/23 02:31:07;;;;;;;31.67;10.60;;;;;;;6.41;100.00;94432.47;5114005;28;20236;-77
2021/09/23 02:33:34;;;;;;;23.03;9.33;;;;;;;6.37;100.00;94434.56;5113948;28;20201;-77
2021/09/23 02:36:00;;;;;;;28.97;11.07;;;;;;;6.48;100.00;94438.66;5113745;28;20231;-77
2021/09/23 02:38:27;;;;;;;28.33;11.27;;;;;;;6.69;100.00;94442.59;5113425;28;20728;-77
2021/09/23 02:40:53;;;;;;;25.67;10.30;;;;;;;6.55;100.00;94442.25;5113632;28;20605;-77
2021/09/23 02:43:20;;;;;;;22.23;9.73;;;;;;;6.57;100.00;94440.28;5113590;28;20197;-77
2021/09/23 02:45:46;;;;;;;28.07;10.77;;;;;;;6.60;100.00;94437.38;5113607;28;20208;-77
2021/09/23 02:48:14;;;;;;;29.40;10.50;;;;;;;6.58;100.00;94434.16;5113721;28;20205;-77
2021/09/23 02:50:40;;;;;;;32.53;10.70;;;;;;;6.87;100.00;94435.47;5113725;28;20197;-77
2021/09/23 02:53:07;;;;;;;19.90;8.60;;;;;;;6.64;100.00;94432.69;5113540;28;20204;-77
2021/09/23 02:55:33;;;;;;;22.50;8.00;;;;;;;6.51;100.00;94424.56;5113406;28;20651;-77
2021/09/23 02:57:59;;;;;;;17.60;8.30;;;;;;;6.41;100.00;94428.13;5113282;28;20229;-77
2021/09/23 03:00:26;;;;;;;27.17;10.00;;;;;;;6.62;100.00;94427.66;5113629;28;20201;-77
2021/09/23 03:02:52;;;;;;;24.40;8.63;;;;;;;6.58;100.00;94434.16;5113527;28;20651;-77
2021/09/23 03:05:20;;;;;;;24.33;9.30;;;;;;;6.67;100.00;94422.00;5113494;28;20198;-77
2021/09/23 03:07:47;;;;;;;19.50;9.53;;;;;;;6.87;100.00;94422.50;5113477;28;20208;-77
2021/09/23 03:10:13;;;;;;;18.40;9.07;;;;;;;6.74;100.00;94427.34;5113342;28;20226;-78
2021/09/23 03:12:40;;;;;;;19.30;8.50;;;;;;;6.70;100.00;94423.47;5117505;28;20201;-78
2021/09/23 03:15:08;;;;;;;24.57;8.60;;;;;;;6.46;100.00;94420.69;5117874;28;20196;-78
2021/09/23 03:17:34;;;;;;;17.67;7.73;;;;;;;6.40;100.00;94413.53;5117397;28;20698;-77
2021/09/23 03:20:01;;;;;;;18.57;7.87;;;;;;;6.29;100.00;94404.28;5117806;28;20200;-77
2021/09/23 03:22:28;;;;;;;20.53;7.80;;;;;;;6.44;100.00;94408.81;5117458;28;20581;-77
2021/09/23 03:24:55;;;;;;;21.80;7.67;;;;;;;6.38;100.00;94404.25;5117326;28;20647;-76
2021/09/23 03:27:22;;;;;;;18.40;8.10;;;;;;;6.56;100.00;94396.34;5117195;28;20229;-77
2021/09/23 03:29:48;;;;;;;19.37;8.57;;;;;;;6.67;100.00;94383.88;5117463;28;20292;-78
2021/09/23 03:32:15;;;;;;;19.60;8.67;;;;;;;6.85;100.00;94372.53;5117369;28;20254;-78
2021/09/23 03:34:41;;;;;;;16.57;7.03;;;;;;;6.82;100.00;94378.84;5117262;28;20204;-78
2021/09/23 03:37:08;;;;;;;24.63;8.50;;;;;;;7.04;100.00;94368.78;5117209;28;20252;-77
2021/09/23 03:39:35;;;;;;;22.77;7.87;;;;;;;7.10;100.00;94357.75;5116983;28;20197;-78
2021/09/23 03:42:02;;;;;;;16.77;7.20;;;;;;;7.15;100.00;94347.69;5116792;28;20189;-78
2021/09/23 03:44:28;;;;;;;15.93;7.20;;;;;;;7.22;100.00;94343.44;5117296;28;20205;-77
2021/09/23 03:46:55;;;;;;;15.13;6.47;;;;;;;7.14;100.00;94350.44;5116942;28;20648;-77
2021/09/23 03:49:22;;;;;;;21.40;6.07;;;;;;;7.13;100.00;94351.44;5117131;28;20566;-77
2021/09/23 03:51:49;;;;;;;15.60;6.50;;;;;;;7.08;100.00;94351.09;5116915;28;20197;-78
2021/09/23 03:54:15;;;;;;;16.03;6.23;;;;;;;6.86;100.00;94345.59;5116797;28;20231;-77
2021/09/23 03:56:43;;;;;;;16.67;6.67;;;;;;;6.70;100.00;94345.63;5116938;28;20655;-78
2021/09/23 03:59:10;;;;;;;17.10;6.67;;;;;;;6.74;100.00;94346.91;5116892;28;20205;-78
2021/09/23 04:01:37;;;;;;;15.80;6.13;;;;;;;6.58;100.00;94353.72;5116833;28;20217;-78
2021/09/23 04:04:04;;;;;;;13.03;6.37;;;;;;;6.47;100.00;94346.25;5116765;28;20201;-78
2021/09/23 04:06:30;;;;;;;14.83;6.33;;;;;;;6.72;100.00;94344.47;5116545;28;20205;-78
2021/09/23 04:08:56;;;;;;;18.03;7.27;;;;;;;6.62;100.00;94346.44;5116673;28;20197;-77
2021/09/23 04:11:23;;;;;;;18.90;7.00;;;;;;;6.59;100.00;94359.72;5116732;28;20246;-77
2021/09/23 04:13:51;;;;;;;16.47;6.70;;;;;;;6.59;100.00;94350.16;5116636;28;20204;-77
2021/09/23 04:16:17;;;;;;;18.27;7.07;;;;;;;6.52;100.00;94354.38;5116363;28;20578;-77
2021/09/23 04:18:43;;;;;;;15.60;6.30;;;;;;;6.35;100.00;94352.75;5116472;28;20204;-77
2021/09/23 04:21:10;;;;;;;10.57;5.47;;;;;;;6.11;100.00;94356.88;5116344;28;20555;-76
2021/09/23 04:23:36;;;;;;;13.47;6.17;;;;;;;6.03;100.00;94351.69;5116463;28;20221;-76
2021/09/23 04:26:03;;;;;;;14.63;6.53;;;;;;;5.97;100.00;94354.91;5116170;28;20229;-76
2021/09/23 04:28:29;;;;;;;17.03;7.10;;;;;;;5.88;100.00;94356.66;5116404;28;20208;-77
2021/09/23 04:30:57;;;;;;;13.07;6.17;;;;;;;5.96;100.00;94346.31;5116399;28;20202;-77
2021/09/23 04:33:25;;;;;;;17.97;7.03;;;;;;;5.92;100.00;94343.19;5116222;28;20648;-77
2021/09/23 04:35:54;;;;;;;15.57;6.83;;;;;;;5.99;100.00;94342.63;5116056;28;20228;-76
2021/09/23 04:38:21;;;;;;;14.87;6.63;;;;;;;5.98;100.00;94338.38;5116252;28;20221;-77
2021/09/23 04:40:48;;;;;;;14.47;7.27;;;;;;;5.91;100.00;94333.81;5116120;28;20197;-77
2021/09/23 04:43:15;;;;;;;16.53;6.83;;;;;;;6.05;100.00;94326.44;5115980;28;20208;-77
2021/09/23 04:45:41;;;;;;;23.33;7.67;;;;;;;6.03;100.00;94323.16;5115847;27;20533;-77
2021/09/23 04:48:09;;;;;;;15.70;7.80;;;;;;;6.03;100.00;94328.34;5115881;28;20201;-76
2021/09/23 04:50:36;;;;;;;19.53;8.00;;;;;;;6.21;100.00;94336.84;5116019;28;20746;-77
2021/09/23 04:53:02;;;;;;;18.70;7.70;;;;;;;6.25;100.00;94338.13;5115924;28;20193;-77
2021/09/23 04:55:29;;;;;;;18.67;7.27;;;;;;;6.06;100.00;94335.81;5115814;28;20201;-77
2021/09/23 04:57:55;;;;;;;18.23;6.87;;;;;;;6.05;100.00;94337.59;5115697;28;20229;-77
2021/09/23 05:00:22;;;;;;;13.73;6.50;;;;;;;5.90;100.00;94328.78;5115647;28;20197;-76
2021/09/23 05:02:49;;;;;;;15.50;7.30;;;;;;;5.95;100.00;94330.91;5115566;28;20205;-77
2021/09/23 05:05:17;;;;;;;13.00;6.20;;;;;;;5.67;100.00;94341.50;5115707;28;20204;-77
2021/09/23 05:07:43;;;;;;;21.90;7.33;;;;;;;5.79;100.00;94331.66;5115742;28;20221;-77
2021/09/23 05:10:10;;;;;;;13.53;6.70;;;;;;;5.63;100.00;94337.59;5115660;28;20200;-77
2021/09/23 05:12:37;;;;;;;11.33;6.03;;;;;;;5.48;100.00;94338.19;5115468;28;20204;-77
2021/09/23 05:15:04;;;;;;;13.47;7.03;;;;;;;5.46;100.00;94337.53;5115479;28;20194;-77
2021/09/23 05:17:30;;;;;;;15.37;7.27;;;;;;;5.41;100.00;94342.34;5115112;28;20221;-77
2021/09/23 05:19:57;;;;;;;18.10;7.23;;;;;;;5.35;100.00;94346.38;5115412;28;20270;-77
2021/09/23 05:22:27;;;;;;;18.13;7.37;;;;;;;5.25;100.00;94335.34;5115301;28;20292;-77
2021/09/23 05:24:54;;;;;;;14.50;7.10;;;;;;;5.30;100.00;94337.47;5115354;28;20198;-77
2021/09/23 05:27:21;;;;;;;16.23;7.87;;;;;;;5.25;100.00;94342.28;5114953;28;20241;-76
2021/09/23 05:29:48;;;;;;;14.93;7.20;;;;;;;5.28;100.00;94336.78;5115047;28;20235;-77
2021/09/23 05:32:14;;;;;;;18.73;7.37;;;;;;;5.14;100.00;94338.19;5115023;28;20201;-77
2021/09/23 05:34:41;;;;;;;16.70;7.60;;;;;;;5.18;100.00;94329.97;5114167;28;20205;-76
2021/09/23 05:37:08;;;;;;;18.87;8.23;;;;;;;5.19;100.00;94321.22;5115069;28;20228;-77
2021/09/23 05:39:36;;;;;;;27.57;8.23;;;;;;;5.44;100.00;94313.56;5114927;28;20201;-77
2021/09/23 05:42:03;;;;;;;20.60;9.00;;;;;;;5.46;100.00;94319.44;5114961;28;20274;-77
2021/09/23 05:44:29;;;;;;;20.50;8.90;;;;;;;5.53;100.00;94315.25;5114750;28;20568;-77
2021/09/23 05:46:57;;;;;;;21.20;8.37;;;;;;;5.46;100.00;94323.78;5115001;28;20197;-76
2021/09/23 05:49:23;;;;;;;22.97;8.00;;;;;;;5.46;100.00;94316.84;5114898;27;20567;-78
2021/09/23 05:51:51;;;;;;;28.90;7.00;;;;;;;5.46;100.00;94321.19;5114772;28;20259;-77
2021/09/23 05:54:18;;;;;;;12.57;6.23;;;;;;;5.35;100.00;94327.47;5114484;28;20194;-76
2021/09/23 05:56:46;;;;;;;13.37;6.53;;;;;;;5.27;100.00;94319.66;5114698;28;20198;-77
2021/09/23 05:59:12;;;;;;;16.73;7.53;;;;;;;5.38;100.00;94325.38;5114303;28;20225;-77
2021/09/23 06:01:39;;;;;;;19.37;6.90;;;;;;;5.40;100.00;94321.81;5114547;28;20593;-77
2021/09/23 06:04:05;;;;;;;19.20;8.00;;;;;;;5.45;100.00;94317.78;5114539;28;20220;-76
2021/09/23 06:06:32;;;;;;;17.60;7.90;;;;;;;5.38;100.00;94321.97;5114465;28;20201;-77
2021/09/23 06:08:59;;;;;;;18.43;7.73;;;;;;;5.45;100.00;94315.19;5114234;28;20208;-76
2021/09/23 06:11:29;;;;;;;21.40;9.23;;;;;;;5.46;100.00;94311.66;5114076;28;20211;-76
2021/09/23 06:13:57;;;;;;;24.80;8.60;;;;;;;5.61;100.00;94301.47;5114276;28;20209;-76
2021/09/23 06:16:23;;;;;;;23.30;8.40;;;;;;;5.64;100.00;94288.22;5114164;28;20564;-76
2021/09/23 06:18:50;;;;;;;22.13;8.93;;;;;;;5.70;100.00;94291.97;5114129;28;20232;-76
2021/09/23 06:21:16;;;;;;;25.20;9.07;;;;;;;6.04;100.00;94278.16;5114044;28;20204;-76
2021/09/23 06:23:42;;;;;;;22.50;9.17;;;;;;;6.11;100.00;94289.50;5113868;28;20239;-76
2021/09/23 06:26:09;;;;;;;26.13;8.60;;;;;;;6.16;100.00;94297.63;5113551;28;20565;-76
2021/09/23 06:28:35;;;;;;;28.80;10.43;;;;;;;6.35;100.00;94286.13;5114006;28;20208;-77
2021/09/23 06:31:03;;;;;;;18.43;8.53;;;;;;;6.37;100.00;94293.75;5113970;28;20288;-76
2021/09/23 06:33:30;;;;;;;21.23;8.87;;;;;;;6.38;100.00;94293.59;5113890;28;20208;-76
2021/09/23 06:35:56;;;;;;;17.60;7.77;;;;;;;6.46;100.00;94292.75;5113689;28;20213;-76
2021/09/23 06:38:22;;;;;;;22.07;8.90;;;;;;;6.53;100.00;94293.75;5113637;28;20225;-76
2021/09/23 06:40:50;;;;;;;24.20;7.83;;;;;;;6.52;100.00;94292.13;5113556;28;20194;-76
2021/09/23 06:43:17;;;;;;;16.23;7.70;;;;;;;6.61;100.00;94279.94;5113742;28;20279;-76
2021/09/23 06:45:43;;;;;;;18.10;7.93;;;;;;;6.77;100.00;94273.94;5112865;28;20197;-76
2021/09/23 06:48:11;;;;;;;13.63;7.37;;;;;;;6.84;100.00;94267.09;5113693;28;20202;-76
2021/09/23 06:50:37;;;;;;;17.43;7.20;;;;;;;6.99;100.00;94267.25;5113435;28;20666;-76
2021/09/23 06:53:04;;;;;;;16.07;7.70;;;;;;;7.01;100.00;94266.09;5113444;28;20652;-76
2021/09/23 06:55:31;;;;;;;22.37;7.70;;;;;;;7.12;100.00;94267.53;5113788;28;20255;-75
2021/09/23 06:57:57;;;;;;;20.00;8.20;;;;;;;7.29;100.00;94270.88;5113457;28;20217;-76
2021/09/23 07:00:24;;;;;;;19.00;7.57;;;;;;;7.36;100.00;94264.06;5113465;28;20193;-76
2021/09/23 07:02:50;;;;;;;13.77;6.57;;;;;;;7.51;100.00;94263.31;5113466;28;20201;-75
2021/09/23 07:05:18;;;;;;;18.50;8.57;;;;;;;7.64;100.00;94253.19;5113443;28;20261;-76
2021/09/23 07:07:44;;;;;;;19.83;7.23;;;;;;;7.81;100.00;94256.53;5113206;28;20725;-76
2021/09/23 07:10:11;;;;;;;14.13;6.97;;;;;;;7.93;100.00;94247.34;5113497;28;20205;-76
2021/09/23 07:12:38;;;;;;;11.53;6.43;;;;;;;8.09;100.00;94254.25;5112292;28;20253;-76
2021/09/23 07:15:05;;;;;;;14.53;6.70;;;;;;;8.20;100.00;94254.81;5113253;28;20197;-76
2021/09/23 07:17:33;;;;;;;15.13;6.47;;;;;;;8.33;100.00;94261.06;5113151;28;20197;-76
2021/09/23 07:19:59;;;;;;;12.07;5.67;;;;;;;8.51;100.00;94258.19;5113219;28;20647;-76
2021/09/23 07:22:27;;;;;;;11.27;5.23;;;;;;;8.68;100.00;94252.84;5113043;28;20582;-77
2021/09/23 07:24:53;;;;;;;13.73;5.70;;;;;;;8.84;100.00;94262.28;5111658;28;20936;-76
2021/09/23 07:27:20;;;;;;;15.13;5.60;;;;;;;8.86;100.00;94266.34;5112487;28;20225;-76
2021/09/23 07:29:46;;;;;;;8.57;4.70;;;;;;;9.06;100.00;94276.25;5112888;28;20212;-76
2021/09/23 07:32:15;;;;;;;9.90;4.93;;;;;;;9.22;100.00;94278.66;5113214;28;20198;-76
2021/09/23 07:34:42;;;;;;;9.80;4.80;;;;;;;9.36;100.00;94281.44;5113144;28;20197;-76
2021/09/23 07:37:09;;;;;;;10.30;4.40;;;;;;;9.52;100.00;94281.25;5112919;28;20228;-76
2021/09/23 07:39:37;;;;;;;7.23;4.03;;;;;;;9.60;100.00;94282.97;5113086;28;20225;-76
2021/09/23 07:42:04;;;;;;;5.73;3.50;;;;;;;9.84;100.00;94281.81;5113242;28;20275;-77
2021/09/23 07:44:32;;;;;;;9.37;4.00;;;;;;;10.10;100.00;94289.16;5113177;28;20197;-76
2021/09/23 07:46:59;;;;;;;5.00;3.00;;;;;;;10.29;100.00;94286.91;5113020;28;20255;-76
2021/09/23 07:49:26;;;;;;;3.53;2.57;;;;;;;10.43;100.00;94293.94;5112881;28;20599;-76
2021/09/23 07:51:53;;;;;;;4.37;2.70;;;;;;;10.58;100.00;94296.47;5112901;28;20604;-77
2021/09/23 07:54:19;;;;;;;6.03;3.13;;;;;;;10.61;100.00;94296.09;5113039;28;20205;-76
2021/09/23 07:56:47;;;;;;;10.40;4.00;;;;;;;10.76;100.00;94300.44;5113320;28;20205;-76
2021/09/23 07:59:14;;;;;;;9.67;4.97;;;;;;;10.86;100.00;94293.91;5116546;28;20317;-76
2021/09/23 08:01:40;;;;;;;15.20;6.77;;;;;;;10.99;100.00;94293.19;5116618;28;20201;-77
2021/09/23 08:04:07;;;;;;;12.73;6.10;;;;;;;11.03;100.00;94289.19;5116473;28;20205;-76
2021/09/23 08:06:33;;;;;;;19.27;7.60;;;;;;;11.12;100.00;94292.47;5116959;28;20674;-76
2021/09/23 08:09:00;;;;;;;19.10;8.87;;;;;;;11.16;100.00;94303.34;5116230;28;20201;-77
2021/09/23 08:11:26;;;;;;;22.17;9.13;;;;;;;11.20;100.00;94294.13;5116342;28;20628;-76
2021/09/23 08:13:54;;;;;;;18.60;7.93;;;;;;;11.32;100.00;94308.28;5116373;28;20201;-77
2021/09/23 08:16:21;;;;;;;15.27;6.83;;;;;;;11.48;100.00;94305.38;5116228;28;20204;-77
2021/09/23 08:18:47;;;;;;;10.83;5.70;;;;;;;11.63;100.00;94299.22;5116052;28;20687;-76
2021/09/23 08:21:14;;;;;;;8.30;4.97;;;;;;;11.62;100.00;94298.41;5116473;28;20198;-77
2021/09/23 08:23:40;;;;;;;10.15;5.18;;;;;;;11.75;100.00;94313.34;5116058;28;20674;-76
2021/09/23 08:26:06;;;;;;;13.98;5.40;;;;;;;11.84;100.00;94301.72;5116076;28;20237;-77
2021/09/23 08:28:35;;;;;;;14.50;6.67;;;;;;;11.92;100.00;94292.91;5115970;28;20205;-77
2021/09/23 08:31:04;;;;;;;12.75;5.13;;;;;;;11.98;100.00;94297.38;5115911;28;20284;-77
2021/09/23 08:33:30;;;;;;;12.77;5.22;;;;;;;12.08;100.00;94296.22;5115840;28;20201;-76
2021/09/23 08:35:57;;;;;;;10.80;4.43;;;;;;;12.15;100.00;94305.69;5115760;28;20201;-76
2021/09/23 08:38:23;;;;;;;7.43;4.47;;;;;;;12.30;100.00;94309.97;5115841;28;20220;-76
2021/09/23 08:40:51;;;;;;;8.18;4.40;;;;;;;12.43;100.00;94309.19;5115884;28;20617;-76
2021/09/23 08:43:18;;;;;;;10.65;4.25;;;;;;;12.46;100.00;94312.22;5115709;28;20537;-77
2021/09/23 08:45:45;;;;;;;8.57;4.20;;;;;;;12.51;100.00;94317.66;5115573;28;20197;-77
2021/09/23 08:48:13;;;;;;;8.85;4.07;;;;;;;12.52;100.00;94307.97;5115723;28;20197;-77
2021/09/23 08:50:40;;;;;;;5.72;3.53;;;;;;;12.65;100.00;94315.06;5115679;28;20201;-77
2021/09/23 08:53:07;;;;;;;12.38;4.22;;;;;;;12.71;100.00;94322.94;5115803;28;20193;-76
2021/09/23 08:55:34;;;;;;;9.95;3.50;;;;;;;12.63;100.00;94315.25;5115615;28;20193;-77
2021/09/23 08:58:04;;;;;;;4.95;3.28;;;;;;;12.49;100.00;94303.97;5115400;28;20258;-76
2021/09/23 09:00:31;;;;;;;6.53;3.53;;;;;;;12.55;100.00;94312.81;5115401;28;20280;-77
2021/09/23 09:03:03;;;;;;;7.75;3.63;;;;;;;12.62;100.00;94318.88;5114958;28;20434;-77
2021/09/23 09:05:31;;;;;;;5.93;2.97;;;;;;;12.60;100.00;94315.66;5115621;28;20204;-77
2021/09/23 09:08:02;;;;;;;4.28;2.72;;;;;;;12.82;100.00;94318.09;5115107;28;20204;-77
2021/09/23 09:10:30;;;;;;;7.30;3.22;;;;;;;12.83;100.00;94333.63;5114737;28;20197;-76
2021/09/23 09:12:59;;;;;;;5.40;3.05;;;;;;;12.91;100.00;94333.44;5115113;28;20201;-77
2021/09/23 09:15:31;;;;;;;6.95;2.83;;;;;;;12.92;100.00;94329.81;5115304;28;20254;-77
2021/09/23 09:17:58;;;;;;;4.60;3.10;;;;;;;12.95;100.00;94329.38;5114570;28;20189;-77
2021/09/23 09:20:24;;;;;;;8.00;3.40;;;;;;;12.92;100.00;94329.00;5115139;28;20193;-77
2021/09/23 09:22:52;;;;;;;8.13;3.03;;;;;;;12.96;100.00;94325.78;5115130;28;20209;-77
2021/09/23 09:25:18;;;;;;;6.88;3.75;;;;;;;13.19;100.00;94318.50;5114623;28;20193;-78
2021/09/23 09:27:49;;;;;;;7.00;3.75;;;;;;;13.21;100.00;94324.38;5115082;28;20197;-77
2021/09/23 09:30:18;;;;;;;8.18;3.20;;;;;;;13.15;100.00;94318.09;5115039;28;20262;-77
2021/09/23 09:32:47;;;;;;;6.85;3.03;;;;;;;13.19;100.00;94314.09;5114761;28;20614;-77
2021/09/23 09:35:17;;;;;;;5.80;3.13;;;;;;;13.26;100.00;94312.25;5114840;28;20197;-77
2021/09/23 09:37:46;;;;;;;7.38;2.88;;;;;;;13.37;100.00;94307.41;5114490;28;20211;-76
2021/09/23 09:40:17;;;;;;;5.85;3.03;;;;;;;13.58;100.00;94301.94;5114592;28;20225;-77
2021/09/23 09:42:45;;;;;;;9.02;2.83;;;;;;;13.82;100.00;94289.13;5114562;28;20656;-77
2021/09/23 09:45:17;;;;;;;9.70;2.65;;;;;;;13.86;100.00;94288.53;5114737;28;20271;-76
2021/09/23 09:47:48;;;;;;;5.50;3.05;;;;;;;13.99;100.00;94282.41;5114519;28;20204;-78
2021/09/23 09:50:16;;;;;;;6.85;2.90;;;;;;;14.18;100.00;94272.03;5114458;28;20209;-77
2021/09/23 09:52:48;;;;;;;8.20;2.75;;;;;;;14.18;100.00;94272.03;5114715;28;20210;-77
2021/09/23 09:55:18;;;;;;;7.65;3.08;;;;;;;14.19;100.00;94273.66;5114559;28;20266;-77
2021/09/23 09:57:45;;;;;;;6.38;2.70;;;;;;;14.24;100.00;94276.44;5114423;28;20208;-77
2021/09/23 10:00:14;;;;;;;5.40;3.03;;;;;;;14.27;100.00;94268.13;5114283;28;20225;-77
2021/09/23 10:02:43;;;;;;;4.28;2.78;;;;;;;14.39;100.00;94271.72;5114259;28;20197;-78
2021/09/23 10:05:10;;;;;;;4.05;2.63;;;;;;;14.36;100.00;94274.75;5114467;28;20205;-77
2021/09/23 10:07:39;;;;;;;4.68;2.75;;;;;;;14.38;100.00;94274.53;5114123;28;20228;-77
2021/09/23 10:10:07;;;;;;;4.97;2.60;;;;;;;14.55;100.00;94270.38;5114206;28;20193;-77
2021/09/23 10:12:37;;;;;;;7.45;3.40;;;;;;;14.73;100.00;94266.25;5114123;28;20205;-77
2021/09/23 10:15:06;;;;;;;5.13;2.80;;;;;;;14.72;100.00;94260.19;5114063;28;20204;-77
2021/09/23 10:17:33;;;;;;;11.02;2.75;;;;;;;14.68;100.00;94263.47;5113822;28;20214;-76
2021/09/23 10:20:01;;;;;;;6.05;2.80;;;;;;;14.74;100.00;94252.91;5113763;28;20273;-77
2021/09/23 10:22:29;;;;;;;5.22;2.80;;;;;;;14.92;100.00;94243.44;5114043;28;20201;-77
2021/09/23 10:24:57;;;;;;;6.22;2.90;;;;;;;15.16;100.00;94240.00;5113996;28;20197;-77
2021/09/23 10:30:11;;;;;;;6.22;2.70;;;;;;;15.64;100.00;94240.31;5113833;28;20285;-77
2021/09/23 10:32:38;;;;;;;6.72;2.60;;;;;;;15.78;100.00;94241.00;5113673;28;20200;-76
2021/09/23 10:35:05;;;;;;;4.35;2.30;;;;;;;15.82;100.00;94234.25;5113638;28;20652;-77
2021/09/23 10:37:32;;;;;;;5.25;2.47;;;;;;;16.00;100.00;94239.50;5113481;28;20687;-77
2021/09/23 10:40:00;;;;;;;4.55;2.80;;;;;;;16.18;100.00;94233.38;5113586;28;20262;-77
2021/09/23 10:42:26;;;;;;;4.40;2.60;;;;;;;16.35;99.16;94228.28;5113520;28;20197;-77
2021/09/23 10:44:55;;;;;;;6.45;2.75;;;;;;;16.40;96.38;94224.97;5112850;28;20446;-77
2021/09/23 10:47:29;;;;;;;5.72;2.78;;;;;;;16.48;98.74;94231.75;5113593;28;20201;-77
2021/09/23 10:49:55;;;;;;;5.30;2.63;;;;;;;16.63;96.21;94235.56;5113607;28;20197;-77
2021/09/23 10:52:23;;;;;;;11.15;3.10;;;;;;;16.86;96.39;94231.41;5113437;28;20577;-77
2021/09/23 10:54:53;;;;;;;6.45;2.83;;;;;;;16.99;94.96;94235.66;5113379;28;20302;-77
2021/09/23 10:57:21;;;;;;;5.38;2.65;;;;;;;17.11;97.41;94235.66;5113596;28;20204;-77
2021/09/23 10:59:48;;;;;;;3.70;2.20;;;;;;;17.19;97.05;94224.75;5113293;28;20609;-77
2021/09/23 11:02:23;;;;;;;7.45;2.70;;;;;;;17.16;95.74;94220.75;5113442;28;20205;-76
2021/09/23 11:04:53;;;;;;;5.03;2.53;;;;;;;17.20;96.81;94224.53;5113389;28;20202;-77
2021/09/23 11:07:21;;;;;;;6.80;2.40;;;;;;;17.31;100.00;94227.41;5113212;28;20651;-77
2021/09/23 11:10:09;;;;;;;4.47;2.08;;;;;;;17.50;100.00;94228.88;5112703;28;20209;-77
2021/09/23 11:12:36;;;;;;;7.50;2.00;;;;;;;17.47;91.88;94224.06;5113423;28;20285;-77
2021/09/23 11:15:04;;;;;;;4.28;2.00;;;;;;;17.53;91.16;94235.50;5113172;28;20209;-77
2021/09/23 11:17:31;;;;;;;6.13;1.88;;;;;;;17.53;88.69;94231.03;5113084;28;20201;-76
2021/09/23 11:20:01;;;;;;;4.40;1.95;;;;;;;17.52;91.58;94228.63;5113007;28;20205;-77
2021/09/23 11:22:37;;;;;;;5.75;1.88;;;;;;;17.61;82.33;94219.31;5113463;28;20204;-76
2021/09/23 11:25:07;;;;;;;5.22;2.00;;;;;;;17.80;83.19;94219.16;5113132;28;20197;-76
2021/09/23 11:27:34;;;;;;;2.00;1.52;;;;;;;18.04;78.03;94222.56;5112803;28;20232;-76